Time;durP1;ratioP1;P1;durP2;ratioP2;P2;SDS_P1;SDS_P2;PMS_P1;PMS_P2;Temp;Humidity;BMP_temperature;BMP_pressure;BME280_temperature;BME280_humidity;BME280_pressure;Samples;Min_cycle;Max_cycle;Signal;HPM_P1;HPM_P2
2023/09/08 00:00:57;;;;;;;;;;;;;;;16.85;60.58;101751.13;107735;1263;72540;-87
2023/09/08 00:03:44;;;;;;;;;;;;;;;16.78;60.50;101748.66;107709;1262;61704;-87
2023/09/08 00:06:30;;;;;;;;;;;;;;;16.70;60.76;101750.94;107658;1263;61281;-87
2023/09/08 00:09:16;;;;;;;;;;;;;;;16.67;60.68;101751.03;107627;1263;73245;-87
2023/09/08 00:12:22;;;;;;;;;;;;;;;16.65;60.65;101751.60;107716;1267;69901;-87
2023/09/08 00:15:28;;;;;;;;;;;;;;;16.61;60.70;101750.64;107811;1264;73330;-87
2023/09/08 00:18:14;;;;;;;;;;;;;;;16.59;60.81;101750.33;107643;1263;61088;-87
2023/09/08 00:21:02;;;;;;;;;;;;;;;16.57;60.79;101748.98;107637;1264;59370;-87
2023/09/08 00:23:48;;;;;;;;;;;;;;;16.56;60.89;101745.53;107413;1264;216512;-87
2023/09/08 00:26:34;;;;;;;;;;;;;;;16.52;60.92;101747.19;107669;1266;68791;-87
2023/09/08 00:29:22;;;;;;;;;;;;;;;16.49;60.98;101747.42;107715;1263;72378;-87
2023/09/08 00:32:08;;;;;;;;;;;;;;;16.47;60.98;101743.80;107664;1264;61239;-87
2023/09/08 00:34:54;;;;;;;;;;;;;;;16.45;61.05;101744.72;107699;1264;59069;-87
2023/09/08 00:37:40;;;;;;;;;;;;;;;16.42;61.14;101742.36;107568;1263;73997;-86
2023/09/08 00:40:27;;;;;;;;;;;;;;;16.39;61.20;101739.10;107676;1267;67031;-87
2023/09/08 00:43:13;;;;;;;;;;;;;;;16.37;61.19;101744.55;107650;1263;73100;-87
2023/09/08 00:46:02;;;;;;;;;;;;;;;16.35;61.23;101742.68;107784;1264;61167;-87
2023/09/08 00:48:48;;;;;;;;;;;;;;;16.33;61.27;101742.55;107687;1263;61121;-87
2023/09/08 00:51:37;;;;;;;;;;;;;;;16.28;61.27;101738.83;107754;1263;73389;-87
2023/09/08 00:54:26;;;;;;;;;;;;;;;16.23;61.21;101744.49;107800;1264;67361;-86
2023/09/08 00:57:12;;;;;;;;;;;;;;;16.19;61.38;101743.54;107744;1262;71003;-87
2023/09/08 00:59:57;;;;;;;;;;;;;;;16.15;61.31;101745.36;107700;1264;61245;-87
2023/09/08 01:02:44;;;;;;;;;;;;;;;16.12;61.38;101743.16;107870;1263;61162;-86
2023/09/08 01:05:32;;;;;;;;;;;;;;;16.08;61.29;101741.54;107669;1265;73250;-87
2023/09/08 01:08:18;;;;;;;;;;;;;;;16.03;61.48;101741.31;107733;1264;67308;-87
2023/09/08 01:11:24;;;;;;;;;;;;;;;15.99;61.48;101737.73;107704;1266;72027;-88
2023/09/08 01:14:17;;;;;;;;;;;;;;;15.96;61.54;101734.85;107818;1266;61136;-87
2023/09/08 01:17:03;;;;;;;;;;;;;;;15.93;61.54;101729.35;107596;1268;61152;-86
2023/09/08 01:19:52;;;;;;;;;;;;;;;15.89;61.55;101725.23;107649;1264;77276;-86
2023/09/08 01:22:50;;;;;;;;;;;;;;;15.89;61.47;101728.88;107783;1266;71356;-86
2023/09/08 01:25:58;;;;;;;;;;;;;;;15.86;61.44;101729.64;107595;1264;75328;-87
2023/09/08 01:28:45;;;;;;;;;;;;;;;15.83;61.45;101728.31;107682;1264;61354;-87
2023/09/08 01:31:32;;;;;;;;;;;;;;;15.79;61.59;101725.08;107712;1264;61293;-86
2023/09/08 01:34:19;;;;;;;;;;;;;;;15.75;61.62;101727.59;107650;1267;73240;-86
2023/09/08 01:37:06;;;;;;;;;;;;;;;15.71;61.72;101730.10;107612;1263;73146;-86
2023/09/08 01:39:52;;;;;;;;;;;;;;;15.69;61.77;101728.75;107713;1270;73951;-87
2023/09/08 01:42:38;;;;;;;;;;;;;;;15.70;61.81;101723.88;107709;1264;61203;-87
2023/09/08 01:45:26;;;;;;;;;;;;;;;15.66;61.63;101722.20;107716;1264;60429;-87
2023/09/08 01:48:12;;;;;;;;;;;;;;;15.61;61.65;101719.88;107689;1264;77614;-87
2023/09/08 01:51:00;;;;;;;;;;;;;;;15.56;61.86;101722.59;107686;1263;68001;-87
2023/09/08 01:53:47;;;;;;;;;;;;;;;15.55;61.82;101722.07;107693;1264;72492;-87
2023/09/08 01:56:34;;;;;;;;;;;;;;;15.54;61.89;101720.70;107685;1264;62308;-87
2023/09/08 01:59:28;;;;;;;;;;;;;;;15.52;61.82;101717.61;107955;1266;61211;-87
2023/09/08 02:02:14;;;;;;;;;;;;;;;15.47;61.82;101723.77;107699;1266;72975;-87
2023/09/08 02:05:01;;;;;;;;;;;;;;;15.43;61.98;101722.30;107700;1264;67974;-87
2023/09/08 02:07:49;;;;;;;;;;;;;;;15.40;62.08;101721.48;107684;1263;71260;-87
2023/09/08 02:10:35;;;;;;;;;;;;;;;15.38;61.97;101720.30;107833;1266;61611;-87
2023/09/08 02:13:30;;;;;;;;;;;;;;;15.35;62.07;101721.05;107773;1264;61137;-87
2023/09/08 02:16:16;;;;;;;;;;;;;;;15.33;62.03;101721.44;107634;1264;72808;-86
2023/09/08 02:19:02;;;;;;;;;;;;;;;15.29;62.07;101723.42;107610;1264;69848;-87
2023/09/08 02:21:49;;;;;;;;;;;;;;;15.25;62.12;101722.09;107667;1264;71122;-87
2023/09/08 02:24:36;;;;;;;;;;;;;;;15.20;62.13;101719.57;107713;1264;61276;-87
2023/09/08 02:27:22;;;;;;;;;;;;;;;15.15;62.20;101723.31;107639;1264;61139;-86
2023/09/08 02:30:08;;;;;;;;;;;;;;;15.12;62.21;101719.89;107695;1264;74149;-87
2023/09/08 02:32:55;;;;;;;;;;;;;;;15.10;62.17;101722.17;107607;1263;66986;-86
2023/09/08 02:35:41;;;;;;;;;;;;;;;15.11;62.23;101720.08;107681;1263;72776;-87
2023/09/08 02:38:27;;;;;;;;;;;;;;;15.08;62.30;101717.35;107670;1264;61339;-87
2023/09/08 02:41:13;;;;;;;;;;;;;;;15.05;62.28;101716.56;107728;1264;61366;-87
2023/09/08 02:44:00;;;;;;;;;;;;;;;15.02;62.31;101716.27;107605;1263;74283;-87
2023/09/08 02:46:47;;;;;;;;;;;;;;;15.01;62.34;101714.02;107794;1264;67518;-87
2023/09/08 02:49:34;;;;;;;;;;;;;;;15.00;62.21;101716.13;107802;1264;71731;-87
2023/09/08 02:52:20;;;;;;;;;;;;;;;14.98;62.48;101711.48;107667;1267;59598;-86
2023/09/08 02:55:08;;;;;;;;;;;;;;;14.96;62.41;101713.93;107604;1263;61198;-86
2023/09/08 02:57:55;;;;;;;;;;;;;;;14.92;62.42;101710.87;107649;1264;75984;-87
2023/09/08 03:00:41;;;;;;;;;;;;;;;14.88;62.54;101711.11;107803;1264;69856;-87
2023/09/08 03:03:27;;;;;;;;;;;;;;;14.84;62.43;101707.17;107604;1267;72989;-87
2023/09/08 03:06:14;;;;;;;;;;;;;;;14.77;62.47;101705.72;107612;1262;62353;-87
2023/09/08 03:09:00;;;;;;;;;;;;;;;14.77;62.52;101702.95;107805;1264;61341;-87
2023/09/08 03:11:47;;;;;;;;;;;;;;;14.76;62.59;101702.27;107827;1264;73242;-87
2023/09/08 03:14:33;;;;;;;;;;;;;;;14.75;62.63;101704.02;107656;1263;67210;-87
2023/09/08 03:17:23;;;;;;;;;;;;;;;14.75;62.62;101702.64;107681;1269;70989;-87
2023/09/08 03:20:11;;;;;;;;;;;;;;;14.72;62.60;101699.91;107839;1264;61264;-87
2023/09/08 03:22:59;;;;;;;;;;;;;;;14.71;62.67;101699.58;107903;1264;61297;-87
2023/09/08 03:25:45;;;;;;;;;;;;;;;14.67;62.64;101697.91;107602;1267;74455;-87
2023/09/08 03:28:32;;;;;;;;;;;;;;;14.60;62.73;101702.00;107624;1264;69686;-87
2023/09/08 03:31:27;;;;;;;;;;;;;;;14.57;62.68;101704.65;107705;1264;71658;-87
2023/09/08 03:34:14;;;;;;;;;;;;;;;14.54;62.69;101700.39;107746;1264;61222;-87
2023/09/08 03:37:00;;;;;;;;;;;;;;;14.49;62.72;101703.92;107752;1264;61167;-87
2023/09/08 03:39:46;;;;;;;;;;;;;;;14.46;62.78;101702.42;107696;1262;73231;-87
2023/09/08 03:42:52;;;;;;;;;;;;;;;14.44;62.71;101700.19;107649;1263;68880;-87
2023/09/08 03:45:39;;;;;;;;;;;;;;;14.37;62.85;101702.51;107848;1264;72140;-87
2023/09/08 03:48:26;;;;;;;;;;;;;;;14.38;63.01;101699.36;107701;1262;61258;-87
2023/09/08 03:51:13;;;;;;;;;;;;;;;14.41;62.91;101700.90;107678;1264;61348;-87
2023/09/08 03:54:19;;;;;;;;;;;;;;;14.38;62.89;101703.36;107703;1264;73418;-87
2023/09/08 03:57:06;;;;;;;;;;;;;;;14.36;62.99;101706.85;107800;1262;67050;-87
2023/09/08 03:59:52;;;;;;;;;;;;;;;14.35;62.98;101705.66;107614;1264;71372;-86
2023/09/08 04:02:39;;;;;;;;;;;;;;;14.32;63.00;101707.43;107687;1263;61276;-87
2023/09/08 04:05:26;;;;;;;;;;;;;;;14.29;63.03;101706.09;107704;1262;61250;-86
2023/09/08 04:08:32;;;;;;;;;;;;;;;14.28;63.14;101707.84;107716;1264;73067;-89
2023/09/08 04:12:09;;;;;;;;;;;;;;;14.28;63.11;101709.74;107280;1270;69911;-89
2023/09/08 04:15:44;;;;;;;;;;;;;;;14.27;63.15;101703.69;106688;1283;72557;-89
2023/09/08 04:19:11;;;;;;;;;;;;;;;14.24;63.16;101705.98;106720;1277;61273;-89
2023/09/08 04:22:45;;;;;;;;;;;;;;;14.23;63.06;101706.70;106827;1280;61241;-90
2023/09/08 04:25:43;;;;;;;;;;;;;;;14.22;63.15;101702.70;108023;1266;73159;-91
2023/09/08 04:29:09;;;;;;;;;;;;;;;14.21;63.19;101702.04;107878;1263;67348;-89
2023/09/08 04:32:37;;;;;;;;;;;;;;;14.20;63.22;101699.09;108158;1264;71062;-89
2023/09/08 04:36:02;;;;;;;;;;;;;;;14.21;63.31;101703.08;108241;1264;61064;-89
2023/09/08 04:39:29;;;;;;;;;;;;;;;14.19;63.24;101702.41;107660;1273;59659;-88
2023/09/08 04:42:55;;;;;;;;;;;;;;;14.16;63.24;101704.17;103660;1270;5246927;-89
2023/09/08 04:46:22;;;;;;;;;;;;;;;14.16;63.33;101706.42;107574;1271;67709;-89
2023/09/08 04:49:48;;;;;;;;;;;;;;;14.20;63.43;101713.14;107348;1277;72058;-88
2023/09/08 04:53:14;;;;;;;;;;;;;;;14.26;63.52;101710.46;107369;1277;59431;-87
2023/09/08 04:56:41;;;;;;;;;;;;;;;14.29;63.56;101713.21;107354;1277;59233;-88
2023/09/08 05:00:07;;;;;;;;;;;;;;;14.33;63.54;101713.66;107341;1276;73549;-87
2023/09/08 05:03:33;;;;;;;;;;;;;;;14.37;63.53;101718.30;106948;1283;67369;-88
2023/09/08 05:06:59;;;;;;;;;;;;;;;14.40;63.59;101714.80;107680;1284;72181;-88
2023/09/08 05:10:25;;;;;;;;;;;;;;;14.46;63.66;101712.30;107508;1284;58964;-88
2023/09/08 05:13:51;;;;;;;;;;;;;;;14.51;63.67;101709.98;106886;1281;59353;-87
2023/09/08 05:17:17;;;;;;;;;;;;;;;14.54;63.85;101709.06;107488;1276;74425;-87
2023/09/08 05:20:44;;;;;;;;;;;;;;;14.61;63.83;101711.70;107365;1278;67733;-88
2023/09/08 05:24:08;;;;;;;;;;;;;;;14.73;63.94;101710.66;107731;1275;71125;-87
2023/09/08 05:27:32;;;;;;;;;;;;;;;14.86;63.87;101716.54;108351;1273;59351;-88
2023/09/08 05:30:56;;;;;;;;;;;;;;;14.96;63.89;101714.63;107670;1273;61175;-88
2023/09/08 05:34:20;;;;;;;;;;;;;;;15.09;63.99;101715.08;107867;1272;74370;-87
2023/09/08 05:37:44;;;;;;;;;;;;;;;15.21;63.87;101715.56;107904;1274;67285;-88
2023/09/08 05:41:07;;;;;;;;;;;;;;;15.32;64.02;101722.33;108143;1269;71103;-87
2023/09/08 05:44:32;;;;;;;;;;;;;;;15.39;64.05;101722.01;108300;1267;59789;-88
2023/09/08 05:47:56;;;;;;;;;;;;;;;15.56;64.16;101724.67;108305;1263;61815;-88
2023/09/08 05:51:20;;;;;;;;;;;;;;;15.82;64.26;101721.20;108377;1268;73234;-88
2023/09/08 05:54:44;;;;;;;;;;;;;;;16.09;64.21;101723.95;108366;1268;68390;-88
2023/09/08 05:58:09;;;;;;;;;;;;;;;16.36;64.16;101724.73;108277;1263;71854;-88
2023/09/08 06:01:33;;;;;;;;;;;;;;;16.60;64.24;101728.53;108340;1268;61233;-88
2023/09/08 06:04:57;;;;;;;;;;;;;;;16.87;64.36;101731.73;108384;1264;61123;-88
2023/09/08 06:08:21;;;;;;;;;;;;;;;17.22;64.42;101727.87;108312;1264;74357;-88
2023/09/08 06:11:46;;;;;;;;;;;;;;;17.68;64.24;101726.83;108329;1264;66575;-88
2023/09/08 06:15:09;;;;;;;;;;;;;;;18.25;64.50;101726.55;108626;1267;71089;-88
2023/09/08 06:18:21;;;;;;;;;;;;;;;19.36;64.30;101723.64;108351;1264;62173;-87
2023/09/08 06:21:45;;;;;;;;;;;;;;;20.51;63.83;101720.20;108986;1266;59402;-88
2023/09/08 06:25:11;;;;;;;;;;;;;;;21.54;63.46;101717.42;109036;1263;73163;-88
2023/09/08 06:28:35;;;;;;;;;;;;;;;22.48;63.34;101718.33;108403;1264;68807;-88
2023/09/08 06:31:59;;;;;;;;;;;;;;;23.54;62.87;101713.35;108288;1264;70996;-88
2023/09/08 06:35:05;;;;;;;;;;;;;;;24.54;62.53;101717.55;108332;1267;59831;-88
2023/09/08 06:37:50;;;;;;;;;;;;;;;25.46;62.14;101718.25;108348;1264;61057;-88
2023/09/08 06:40:54;;;;;;;;;;;;;;;26.24;61.92;101722.90;108192;1264;76062;-88
2023/09/08 06:43:58;;;;;;;;;;;;;;;27.08;61.90;101717.84;108417;1267;68528;-88
2023/09/08 06:47:22;;;;;;;;;;;;;;;27.94;61.51;101716.64;108243;1264;72982;-88
2023/09/08 06:50:07;;;;;;;;;;;;;;;28.69;61.06;101717.52;108388;1268;59394;-88
2023/09/08 06:53:30;;;;;;;;;;;;;;;29.46;60.71;101717.22;108255;1267;61814;-88
2023/09/08 06:56:15;;;;;;;;;;;;;;;30.29;60.04;101718.07;109060;1264;73508;-87
2023/09/08 06:59:20;;;;;;;;;;;;;;;30.89;59.79;101718.23;108762;1266;67230;-90
2023/09/08 07:02:45;;;;;;;;;;;;;;;31.38;59.74;101714.26;108338;1264;71618;-92
2023/09/08 07:06:11;;;;;;;;;;;;;;;31.95;59.56;101713.44;108228;1267;61268;-92
2023/09/08 07:09:39;;;;;;;;;;;;;;;32.60;59.14;101717.00;108326;1264;61139;-92
2023/09/08 07:13:06;;;;;;;;;;;;;;;33.40;58.56;101717.40;107756;1270;74653;-92
2023/09/08 07:16:32;;;;;;;;;;;;;;;34.18;57.75;101719.04;107810;1270;67171;-92
2023/09/08 07:19:59;;;;;;;;;;;;;;;34.76;58.03;101718.44;107705;1270;71326;-93
2023/09/08 07:23:25;;;;;;;;;;;;;;;35.85;57.90;101716.06;107954;1270;61168;-92
2023/09/08 07:26:52;;;;;;;;;;;;;;;37.15;57.02;101718.71;107799;1274;59289;-93
2023/09/08 07:30:33;;;;;;;;;;;;;;;37.68;56.28;101716.85;107754;1270;74108;-92
2023/09/08 07:34:00;;;;;;;;;;;;;;;37.17;56.53;101713.11;107732;1271;69247;-92
2023/09/08 07:37:26;;;;;;;;;;;;;;;37.32;55.60;101713.69;107771;1275;71225;-92
2023/09/08 07:40:52;;;;;;;;;;;;;;;36.62;55.35;101712.23;107745;1270;61205;-93
2023/09/08 07:44:19;;;;;;;;;;;;;;;36.46;54.62;101712.20;107787;1274;60211;-93
2023/09/08 07:47:45;;;;;;;;;;;;;;;35.76;54.04;101711.23;107831;1270;74891;-90
2023/09/08 07:51:12;;;;;;;;;;;;;;;36.61;53.45;101714.98;108283;1264;70066;-90
2023/09/08 07:54:38;;;;;;;;;;;;;;;38.19;52.04;101714.00;108220;1263;72794;-91
2023/09/08 07:58:05;;;;;;;;;;;;;;;39.48;50.64;101709.21;108223;1264;60971;-92
2023/09/08 08:01:32;;;;;;;;;;;;;;;40.48;49.75;101706.13;108275;1264;61372;-90
2023/09/08 08:04:57;;;;;;;;;;;;;;;41.37;49.40;101702.83;108255;1264;74578;-91
2023/09/08 08:08:24;;;;;;;;;;;;;;;42.31;48.99;101702.02;108255;1263;69076;-90
2023/09/08 08:11:50;;;;;;;;;;;;;;;43.18;48.32;101696.23;108277;1264;71136;-91
2023/09/08 08:15:16;;;;;;;;;;;;;;;43.92;47.83;101686.13;108230;1264;58636;-90
2023/09/08 08:18:43;;;;;;;;;;;;;;;44.38;47.12;101684.35;108303;1263;59246;-91
2023/09/08 08:22:09;;;;;;;;;;;;;;;44.86;46.43;101685.94;108254;1264;74242;-91
2023/09/08 08:25:37;;;;;;;;;;;;;;;45.19;45.95;101683.98;108244;1266;62626;-91
2023/09/08 08:29:03;;;;;;;;;;;;;;;45.22;45.16;101681.17;108318;1264;65291;-90
2023/09/08 08:32:29;;;;;;;;;;;;;;;44.65;44.50;101676.42;107782;1270;61223;-90
2023/09/08 08:35:56;;;;;;;;;;;;;;;41.82;44.57;101678.45;107773;1272;61535;-91
2023/09/08 08:39:22;;;;;;;;;;;;;;;39.23;45.11;101674.04;107810;1270;74625;-90
2023/09/08 08:42:52;;;;;;;;;;;;;;;37.29;44.77;101667.89;107730;1271;67493;-90
2023/09/08 08:46:20;;;;;;;;;;;;;;;35.73;44.39;101660.61;107788;1270;72271;-90
2023/09/08 08:49:46;;;;;;;;;;;;;;;34.33;43.90;101661.66;107756;1274;61155;-90
2023/09/08 08:53:12;;;;;;;;;;;;;;;33.24;43.74;101655.98;108210;1270;58674;-90
2023/09/08 08:56:38;;;;;;;;;;;;;;;32.26;43.23;101651.39;107802;1270;75607;-90
2023/09/08 09:00:08;;;;;;;;;;;;;;;31.32;42.94;101655.91;107855;1274;68561;-91
2023/09/08 09:03:30;;;;;;;;;;;;;;;30.50;42.84;101658.34;107276;1282;71348;-92
2023/09/08 09:06:57;;;;;;;;;;;;;;;29.93;42.87;101660.41;106545;1285;61757;-92
2023/09/08 09:10:24;;;;;;;;;;;;;;;29.39;42.57;101652.98;107143;1280;61242;-92
2023/09/08 09:13:50;;;;;;;;;;;;;;;28.91;42.64;101645.38;107205;1279;75910;-92
2023/09/08 09:17:23;;;;;;;;;;;;;;;28.47;42.57;101644.67;107224;1279;68036;-92
2023/09/08 09:20:50;;;;;;;;;;;;;;;28.09;42.47;101642.65;106401;1286;73925;-92
2023/09/08 09:24:16;;;;;;;;;;;;;;;27.77;42.66;101640.39;106439;1285;59276;-92
2023/09/08 09:27:45;;;;;;;;;;;;;;;27.53;42.56;101634.30;106121;1289;61236;-92
2023/09/08 09:31:11;;;;;;;;;;;;;;;27.28;42.74;101635.38;105410;1295;76049;-92
2023/09/08 09:37:17;;;;;;;;;;;;;;;27.01;42.93;101627.00;108383;1264;72092;-91
2023/09/08 09:40:49;;;;;;;;;;;;;;;26.87;42.88;101624.79;108362;1265;61252;-91
2023/09/08 09:46:53;;;;;;;;;;;;;;;26.69;43.17;101622.83;108407;1264;73852;-91
2023/09/08 09:50:19;;;;;;;;;;;;;;;26.57;42.97;101623.31;108340;1265;67084;-91
2023/09/08 09:53:47;;;;;;;;;;;;;;;26.46;43.03;101620.34;108335;1263;71333;-91
2023/09/08 09:57:12;;;;;;;;;;;;;;;26.34;43.19;101617.04;108368;1262;59540;-91
2023/09/08 10:00:39;;;;;;;;;;;;;;;26.28;43.36;101613.52;108403;1263;59422;-91
2023/09/08 10:04:06;;;;;;;;;;;;;;;26.25;43.49;101614.42;108354;1267;74417;-91
2023/09/08 10:07:32;;;;;;;;;;;;;;;26.22;43.66;101612.91;108359;1263;67131;-91
2023/09/08 10:10:59;;;;;;;;;;;;;;;26.22;43.68;101609.73;108391;1266;70556;-91
2023/09/08 10:14:28;;;;;;;;;;;;;;;26.22;43.80;101612.15;108423;1263;61207;-91
2023/09/08 10:17:54;;;;;;;;;;;;;;;26.20;43.63;101608.23;107906;1271;61030;-91
2023/09/08 10:21:17;;;;;;;;;;;;;;;26.17;43.90;101608.06;107270;1277;73374;-91
2023/09/08 10:24:42;;;;;;;;;;;;;;;26.18;43.97;101606.24;107331;1277;68401;-91
2023/09/08 10:33:19;;;;;;;;;;;;;;;26.09;44.04;101602.77;108458;1262;61094;-91
2023/09/08 10:36:15;;;;;;;;;;;;;;;26.09;44.20;101601.36;108488;1264;73324;-91
2023/09/08 10:39:46;;;;;;;;;;;;;;;26.10;44.34;101604.34;108434;1262;67395;-91
2023/09/08 10:43:27;;;;;;;;;;;;;;;26.10;44.27;101597.59;107708;1276;72190;-91
2023/09/08 10:46:52;;;;;;;;;;;;;;;26.06;44.32;101601.39;107520;1277;61199;-91
2023/09/08 10:50:22;;;;;;;;;;;;;;;26.05;44.33;101598.23;108261;1276;58928;-91
2023/09/08 10:53:46;;;;;;;;;;;;;;;26.04;44.59;101593.54;107972;1279;74377;-91
2023/09/08 10:57:13;;;;;;;;;;;;;;;26.05;44.52;101589.95;107444;1279;68123;-91
2023/09/08 11:00:38;;;;;;;;;;;;;;;26.04;44.66;101585.10;107456;1276;72119;-91
2023/09/08 11:04:05;;;;;;;;;;;;;;;26.07;44.54;101582.41;106903;1284;59959;-91
2023/09/08 11:10:04;;;;;;;;;;;;;;;26.05;44.56;101580.44;108545;1263;73149;-91
2023/09/08 11:13:29;;;;;;;;;;;;;;;26.04;44.69;101577.63;107784;1271;67269;-91
2023/09/08 11:16:54;;;;;;;;;;;;;;;26.07;44.51;101579.06;107774;1271;71303;-91
2023/09/08 11:20:18;;;;;;;;;;;;;;;26.08;44.87;101574.55;107927;1271;61561;-91
2023/09/08 11:23:42;;;;;;;;;;;;;;;26.10;44.71;101571.59;107885;1272;59681;-91
2023/09/08 11:27:06;;;;;;;;;;;;;;;26.09;44.85;101573.24;107829;1270;74896;-91
2023/09/08 11:30:31;;;;;;;;;;;;;;;26.10;44.92;101569.48;107808;1271;67003;-91
2023/09/08 11:33:59;;;;;;;;;;;;;;;26.13;44.98;101567.70;107712;1274;71161;-91
2023/09/08 11:37:30;;;;;;;;;;;;;;;26.11;44.81;101563.23;107546;1276;61001;-91
2023/09/08 11:40:57;;;;;;;;;;;;;;;26.10;45.00;101564.02;107616;1285;59015;-91
2023/09/08 11:44:23;;;;;;;;;;;;;;;26.11;44.95;101565.89;107242;1280;73353;-91
2023/09/08 11:47:51;;;;;;;;;;;;;;;26.14;45.01;101565.16;106189;1287;68254;-91
2023/09/08 11:51:17;;;;;;;;;;;;;;;26.15;45.11;101562.96;106977;1280;72524;-91
2023/09/08 11:54:44;;;;;;;;;;;;;;;26.18;44.98;101561.73;107089;1281;61135;-91
2023/09/08 11:58:24;;;;;;;;;;;;;;;26.18;44.96;101558.52;106948;1280;59726;-90
2023/09/08 12:01:50;;;;;;;;;;;;;;;26.17;45.01;101549.05;107147;1280;75088;-91
2023/09/08 12:05:17;;;;;;;;;;;;;;;26.18;45.12;101549.16;107118;1281;67939;-91
2023/09/08 12:08:44;;;;;;;;;;;;;;;26.18;45.18;101549.84;107108;1280;71087;-91
2023/09/08 12:12:10;;;;;;;;;;;;;;;26.17;45.20;101545.36;107084;1281;59679;-92
2023/09/08 12:15:54;;;;;;;;;;;;;;;26.18;45.19;101545.83;107428;1278;62085;-92
2023/09/08 12:19:23;;;;;;;;;;;;;;;26.16;45.27;101542.39;107917;1272;77548;-92
2023/09/08 12:22:52;;;;;;;;;;;;;;;26.15;45.32;101537.67;107466;1275;67964;-91
2023/09/08 12:26:19;;;;;;;;;;;;;;;26.16;45.35;101533.92;107986;1269;71289;-92
2023/09/08 12:29:46;;;;;;;;;;;;;;;26.19;45.28;101530.34;108011;1269;61173;-92
2023/09/08 12:33:14;;;;;;;;;;;;;;;26.20;45.25;101524.10;107875;1269;60234;-92
2023/09/08 12:36:40;;;;;;;;;;;;;;;26.21;45.30;101519.08;107848;1270;73215;-91
2023/09/08 12:42:44;;;;;;;;;;;;;;;26.20;45.41;101517.54;108499;1263;72107;-91
2023/09/08 12:46:10;;;;;;;;;;;;;;;26.22;45.44;101511.77;108400;1265;61086;-92
2023/09/08 12:49:37;;;;;;;;;;;;;;;26.26;45.55;101510.61;108370;1265;61198;-91
2023/09/08 12:53:03;;;;;;;;;;;;;;;26.28;45.48;101512.25;108360;1263;73595;-91
2023/09/08 12:56:29;;;;;;;;;;;;;;;26.29;45.18;101506.89;107921;1271;66706;-92
2023/09/08 12:59:54;;;;;;;;;;;;;;;26.25;45.42;101502.87;107869;1275;71452;-92
2023/09/08 13:03:18;;;;;;;;;;;;;;;26.26;45.38;101501.09;107953;1271;59574;-91
2023/09/08 13:06:43;;;;;;;;;;;;;;;26.24;45.36;101495.91;107309;1277;59306;-92
2023/09/08 13:10:07;;;;;;;;;;;;;;;26.20;45.46;101493.67;106901;1283;75941;-92
2023/09/08 13:13:32;;;;;;;;;;;;;;;26.17;45.32;101491.93;106167;1289;67171;-91
2023/09/08 13:16:56;;;;;;;;;;;;;;;26.19;45.39;101487.05;106127;1289;71311;-91
2023/09/08 13:20:22;;;;;;;;;;;;;;;26.17;45.39;101482.38;106129;1293;61289;-92
2023/09/08 13:23:46;;;;;;;;;;;;;;;26.18;45.57;101481.63;106234;1289;61174;-91
2023/09/08 13:27:11;;;;;;;;;;;;;;;26.20;45.29;101476.92;106313;1288;74457;-91
2023/09/08 13:30:35;;;;;;;;;;;;;;;26.21;45.46;101474.93;105611;1289;70044;-89
2023/09/08 13:34:00;;;;;;;;;;;;;;;26.22;45.52;101471.28;106024;1283;72424;-90
2023/09/08 13:37:26;;;;;;;;;;;;;;;26.22;45.52;101469.90;106608;1283;61196;-90
2023/09/08 13:40:53;;;;;;;;;;;;;;;26.23;45.72;101471.90;106706;1283;59274;-90
2023/09/08 13:44:19;;;;;;;;;;;;;;;26.24;45.65;101464.07;107248;1277;73250;-90
2023/09/08 13:47:46;;;;;;;;;;;;;;;26.24;45.70;101462.14;107707;1271;68609;-90
2023/09/08 13:51:12;;;;;;;;;;;;;;;26.29;45.54;101455.27;108190;1263;71201;-90
2023/09/08 13:54:40;;;;;;;;;;;;;;;26.29;45.33;101454.17;108284;1263;60026;-90
2023/09/08 13:58:05;;;;;;;;;;;;;;;26.26;45.30;101448.88;108302;1263;61114;-89
2023/09/08 14:01:32;;;;;;;;;;;;;;;26.26;45.49;101445.40;108273;1263;73980;-89
2023/09/08 14:04:57;;;;;;;;;;;;;;;26.25;45.60;101441.39;108182;1266;67741;-90
2023/09/08 14:08:23;;;;;;;;;;;;;;;26.24;45.55;101435.64;108203;1264;71652;-90
2023/09/08 14:11:50;;;;;;;;;;;;;;;26.22;45.67;101432.06;108345;1264;61330;-90
2023/09/08 14:15:16;;;;;;;;;;;;;;;26.19;45.60;101427.45;108225;1266;59772;-89
2023/09/08 14:18:43;;;;;;;;;;;;;;;26.18;45.62;101428.98;108165;1266;73153;-90
2023/09/08 14:22:09;;;;;;;;;;;;;;;26.15;45.61;101422.85;108136;1266;67292;-89
2023/09/08 14:25:35;;;;;;;;;;;;;;;26.14;45.43;101420.41;108147;1266;71246;-89
2023/09/08 14:29:02;;;;;;;;;;;;;;;26.13;45.58;101418.20;108120;1264;61260;-89
2023/09/08 14:32:31;;;;;;;;;;;;;;;26.16;45.45;101417.30;107735;1272;59478;-89
2023/09/08 14:36:03;;;;;;;;;;;;;;;26.16;45.44;101418.65;107338;1277;76572;-89
2023/09/08 14:39:30;;;;;;;;;;;;;;;26.16;45.24;101420.29;106878;1283;71294;-90
2023/09/08 14:42:56;;;;;;;;;;;;;;;26.16;45.37;101416.04;106377;1289;73228;-90
2023/09/08 14:46:23;;;;;;;;;;;;;;;26.14;45.64;101415.15;105895;1292;61102;-90
2023/09/08 14:49:49;;;;;;;;;;;;;;;26.12;45.58;101410.63;105897;1292;59768;-90
2023/09/08 14:53:15;;;;;;;;;;;;;;;26.09;45.67;101411.54;105632;1294;74379;-91
2023/09/08 14:56:42;;;;;;;;;;;;;;;26.06;45.59;101406.11;105502;1295;68580;-89
2023/09/08 15:00:09;;;;;;;;;;;;;;;26.05;45.89;101408.61;105565;1295;71061;-89
2023/09/08 15:03:35;;;;;;;;;;;;;;;26.04;45.88;101406.26;105146;1300;59143;-90
2023/09/08 15:07:01;;;;;;;;;;;;;;;26.01;45.89;101409.26;105117;1301;61322;-89
2023/09/08 15:10:25;;;;;;;;;;;;;;;25.98;45.76;101404.88;105552;1300;73704;-90
2023/09/08 15:13:50;;;;;;;;;;;;;;;25.96;46.02;101408.07;105407;1291;69955;-89
2023/09/08 15:17:16;;;;;;;;;;;;;;;25.94;45.88;101405.70;105417;1289;71649;-89
2023/09/08 15:20:40;;;;;;;;;;;;;;;25.93;46.00;101403.52;105836;1293;60484;-89
2023/09/08 15:24:03;;;;;;;;;;;;;;;25.90;45.83;101405.81;106933;1280;59479;-90
2023/09/08 15:27:27;;;;;;;;;;;;;;;25.86;46.03;101405.92;106302;1288;74902;-89
2023/09/08 15:30:51;;;;;;;;;;;;;;;25.82;45.92;101402.09;106307;1288;67430;-89
2023/09/08 15:34:18;;;;;;;;;;;;;;;25.78;46.10;101397.26;106380;1288;71214;-90
2023/09/08 15:37:44;;;;;;;;;;;;;;;25.73;46.21;101395.29;106575;1284;59143;-90
2023/09/08 15:41:25;;;;;;;;;;;;;;;25.69;46.20;101398.41;107073;1280;61653;-91
2023/09/08 15:44:52;;;;;;;;;;;;;;;25.63;46.38;101399.64;106619;1282;73027;-90
2023/09/08 15:48:18;;;;;;;;;;;;;;;25.58;46.54;101392.36;106696;1283;69047;-90
2023/09/08 15:51:44;;;;;;;;;;;;;;;25.54;46.59;101391.96;106686;1283;71856;-90
2023/09/08 15:55:11;;;;;;;;;;;;;;;25.49;46.71;101386.65;106664;1286;60064;-91
2023/09/08 15:58:37;;;;;;;;;;;;;;;25.42;46.73;101390.32;106712;1283;61159;-91
2023/09/08 16:02:03;;;;;;;;;;;;;;;25.36;46.73;101386.62;107109;1278;72346;-90
2023/09/08 16:05:30;;;;;;;;;;;;;;;25.29;46.69;101383.75;107665;1274;67156;-90
2023/09/08 16:08:56;;;;;;;;;;;;;;;25.22;46.86;101377.84;107789;1270;72593;-90
2023/09/08 16:12:28;;;;;;;;;;;;;;;25.15;46.88;101375.13;107761;1273;59514;-90
2023/09/08 16:15:54;;;;;;;;;;;;;;;25.08;46.94;101377.67;107364;1276;61462;-90
2023/09/08 16:19:21;;;;;;;;;;;;;;;25.03;47.13;101378.36;107605;1272;73074;-90
2023/09/08 16:22:47;;;;;;;;;;;;;;;24.97;47.26;101375.03;107540;1274;67982;-91
2023/09/08 16:26:13;;;;;;;;;;;;;;;24.90;47.34;101376.38;107555;1272;72352;-90
2023/09/08 16:29:39;;;;;;;;;;;;;;;24.83;47.51;101375.80;107561;1274;61251;-90
2023/09/08 16:33:05;;;;;;;;;;;;;;;24.74;47.68;101375.98;107555;1275;59216;-90
2023/09/08 16:36:31;;;;;;;;;;;;;;;24.66;47.84;101373.29;107553;1272;73404;-90
2023/09/08 16:39:58;;;;;;;;;;;;;;;24.59;48.02;101376.61;107542;1273;67624;-90